<?xml version="1.0" encoding="UTF-8"?>
<gpx xmlns="http://www.topografix.com/GPX/1/1" xmlns:xsi="http://www.w3.org/2001/XMLSchema-instance" version="1.1" xsi:schemaLocation="http://www.topografix.com/GPX/1/1 http://www.topografix.com/GPX/1/1/gpx.xsd">
  <metadata>
    <name>Maumee Bay Creek Triathlon 2022 - Sprint Aquabike</name>
  </metadata>
  <trk>
    <name>Maumee Bay Creek Triathlon 2022 - Sprint Aquabike</name>
    <trkseg>
      <trkpt lat="41.684232" lon="-83.379824">
        <ele>174.999997</ele>
        <time>2022-06-25T08:00:00.000Z</time>
      </trkpt>
      <trkpt lat="41.684242" lon="-83.379838">
        <ele>174.999999</ele>
        <time>2022-06-25T08:00:00.000Z</time>
      </trkpt>
      <trkpt lat="41.68397" lon="-83.379885">
        <ele>175.000007</ele>
        <time>2022-06-25T08:00:03.000Z</time>
      </trkpt>
      <trkpt lat="41.682191" lon="-83.380292">
        <ele>175.000002</ele>
        <time>2022-06-25T08:00:23.000Z</time>
      </trkpt>
      <trkpt lat="41.681673" lon="-83.380237">
        <ele>175.000007</ele>
        <time>2022-06-25T08:00:29.000Z</time>
      </trkpt>
      <trkpt lat="41.681119" lon="-83.379943">
        <ele>174.999994</ele>
        <time>2022-06-25T08:00:36.000Z</time>
      </trkpt>
      <trkpt lat="41.681058" lon="-83.379893">
        <ele>175.000004</ele>
        <time>2022-06-25T08:00:37.000Z</time>
      </trkpt>
      <trkpt lat="41.680761" lon="-83.379544">
        <ele>175</ele>
        <time>2022-06-25T08:00:41.000Z</time>
      </trkpt>
      <trkpt lat="41.680496" lon="-83.379045">
        <ele>175.000007</ele>
        <time>2022-06-25T08:00:46.000Z</time>
      </trkpt>
      <trkpt lat="41.680354" lon="-83.378663">
        <ele>175.000003</ele>
        <time>2022-06-25T08:00:50.000Z</time>
      </trkpt>
      <trkpt lat="41.680235" lon="-83.378113">
        <ele>175</ele>
        <time>2022-06-25T08:00:55.000Z</time>
      </trkpt>
      <trkpt lat="41.679986" lon="-83.377102">
        <ele>174.999999</ele>
        <time>2022-06-25T08:01:04.000Z</time>
      </trkpt>
      <trkpt lat="41.679908" lon="-83.376856">
        <ele>174.999996</ele>
        <time>2022-06-25T08:01:06.000Z</time>
      </trkpt>
      <trkpt lat="41.679615" lon="-83.376221">
        <ele>174.999995</ele>
        <time>2022-06-25T08:01:12.000Z</time>
      </trkpt>
      <trkpt lat="41.678887" lon="-83.375449">
        <ele>174.999995</ele>
        <time>2022-06-25T08:01:22.000Z</time>
      </trkpt>
      <trkpt lat="41.678619" lon="-83.375076">
        <ele>175.000003</ele>
        <time>2022-06-25T08:01:26.000Z</time>
      </trkpt>
      <trkpt lat="41.678285" lon="-83.374427">
        <ele>174.999992</ele>
        <time>2022-06-25T08:01:33.000Z</time>
      </trkpt>
      <trkpt lat="41.678052" lon="-83.373801">
        <ele>174.999997</ele>
        <time>2022-06-25T08:01:39.000Z</time>
      </trkpt>
      <trkpt lat="41.677941" lon="-83.373344">
        <ele>175.000005</ele>
        <time>2022-06-25T08:01:43.000Z</time>
      </trkpt>
      <trkpt lat="41.677864" lon="-83.372624">
        <ele>175.000005</ele>
        <time>2022-06-25T08:01:49.000Z</time>
      </trkpt>
      <trkpt lat="41.677894" lon="-83.37115">
        <ele>174.99876</ele>
        <time>2022-06-25T08:02:01.000Z</time>
      </trkpt>
      <trkpt lat="41.677838" lon="-83.370901">
        <ele>174.998525</ele>
        <time>2022-06-25T08:02:03.000Z</time>
      </trkpt>
      <trkpt lat="41.677669" lon="-83.370531">
        <ele>174.998114</ele>
        <time>2022-06-25T08:02:07.000Z</time>
      </trkpt>
      <trkpt lat="41.67759" lon="-83.370409">
        <ele>174.997947</ele>
        <time>2022-06-25T08:02:08.000Z</time>
      </trkpt>
      <trkpt lat="41.677284" lon="-83.370075">
        <ele>174.973485</ele>
        <time>2022-06-25T08:02:12.000Z</time>
      </trkpt>
      <trkpt lat="41.676788" lon="-83.36992">
        <ele>174.909717</ele>
        <time>2022-06-25T08:02:18.000Z</time>
      </trkpt>
      <trkpt lat="41.676305" lon="-83.369971">
        <ele>174.851017</ele>
        <time>2022-06-25T08:02:23.000Z</time>
      </trkpt>
      <trkpt lat="41.675657" lon="-83.370211">
        <ele>174.772493</ele>
        <time>2022-06-25T08:02:30.000Z</time>
      </trkpt>
      <trkpt lat="41.675272" lon="-83.37053">
        <ele>174.775232</ele>
        <time>2022-06-25T08:02:35.000Z</time>
      </trkpt>
      <trkpt lat="41.674942" lon="-83.370731">
        <ele>174.777349</ele>
        <time>2022-06-25T08:02:39.000Z</time>
      </trkpt>
      <trkpt lat="41.674795" lon="-83.370757">
        <ele>174.778298</ele>
        <time>2022-06-25T08:02:41.000Z</time>
      </trkpt>
      <trkpt lat="41.674703" lon="-83.370716">
        <ele>174.778816</ele>
        <time>2022-06-25T08:02:42.000Z</time>
      </trkpt>
      <trkpt lat="41.674718" lon="-83.37097">
        <ele>174.779961</ele>
        <time>2022-06-25T08:02:44.000Z</time>
      </trkpt>
      <trkpt lat="41.674719" lon="-83.371162">
        <ele>174.780863</ele>
        <time>2022-06-25T08:02:46.000Z</time>
      </trkpt>
      <trkpt lat="41.674718" lon="-83.371525">
        <ele>174.782466</ele>
        <time>2022-06-25T08:02:49.000Z</time>
      </trkpt>
      <trkpt lat="41.674714" lon="-83.371577">
        <ele>174.782698</ele>
        <time>2022-06-25T08:02:49.000Z</time>
      </trkpt>
      <trkpt lat="41.674711" lon="-83.375531">
        <ele>175.69792</ele>
        <time>2022-06-25T08:03:22.000Z</time>
      </trkpt>
      <trkpt lat="41.674682" lon="-83.377517">
        <ele>175.937855</ele>
        <time>2022-06-25T08:03:38.000Z</time>
      </trkpt>
      <trkpt lat="41.674703" lon="-83.380063">
        <ele>176.000003</ele>
        <time>2022-06-25T08:03:59.000Z</time>
      </trkpt>
      <trkpt lat="41.674655" lon="-83.386607">
        <ele>176.000008</ele>
        <time>2022-06-25T08:04:53.000Z</time>
      </trkpt>
      <trkpt lat="41.674663" lon="-83.387873">
        <ele>176.000009</ele>
        <time>2022-06-25T08:05:04.000Z</time>
      </trkpt>
      <trkpt lat="41.674654" lon="-83.39024">
        <ele>175.999995</ele>
        <time>2022-06-25T08:05:24.000Z</time>
      </trkpt>
      <trkpt lat="41.674617" lon="-83.39538">
        <ele>175.999995</ele>
        <time>2022-06-25T08:06:07.000Z</time>
      </trkpt>
      <trkpt lat="41.674617" lon="-83.396637">
        <ele>175.999999</ele>
        <time>2022-06-25T08:06:17.000Z</time>
      </trkpt>
      <trkpt lat="41.674585" lon="-83.398754">
        <ele>176.007464</ele>
        <time>2022-06-25T08:06:35.000Z</time>
      </trkpt>
      <trkpt lat="41.6746" lon="-83.398983">
        <ele>176.010188</ele>
        <time>2022-06-25T08:06:37.000Z</time>
      </trkpt>
      <trkpt lat="41.67459" lon="-83.399704">
        <ele>176.018932</ele>
        <time>2022-06-25T08:06:43.000Z</time>
      </trkpt>
      <trkpt lat="41.674575" lon="-83.400661">
        <ele>176.044857</ele>
        <time>2022-06-25T08:06:51.000Z</time>
      </trkpt>
      <trkpt lat="41.674587" lon="-83.402298">
        <ele>176.231352</ele>
        <time>2022-06-25T08:07:05.000Z</time>
      </trkpt>
      <trkpt lat="41.674564" lon="-83.405437">
        <ele>176.589733</ele>
        <time>2022-06-25T08:07:31.000Z</time>
      </trkpt>
      <trkpt lat="41.674528" lon="-83.4084">
        <ele>176.242466</ele>
        <time>2022-06-25T08:07:56.000Z</time>
      </trkpt>
      <trkpt lat="41.674515" lon="-83.409657">
        <ele>176.111544</ele>
        <time>2022-06-25T08:08:06.000Z</time>
      </trkpt>
      <trkpt lat="41.674524" lon="-83.409746">
        <ele>176.101608</ele>
        <time>2022-06-25T08:08:07.000Z</time>
      </trkpt>
      <trkpt lat="41.674455" lon="-83.413484">
        <ele>176.305146</ele>
        <time>2022-06-25T08:08:38.000Z</time>
      </trkpt>
      <trkpt lat="41.674442" lon="-83.414471">
        <ele>176.388443</ele>
        <time>2022-06-25T08:08:46.000Z</time>
      </trkpt>
      <trkpt lat="41.67432" lon="-83.421692">
        <ele>176.833729</ele>
        <time>2022-06-25T08:09:46.000Z</time>
      </trkpt>
      <trkpt lat="41.674444" lon="-83.41447">
        <ele>176.386003</ele>
        <time>2022-06-25T08:10:46.000Z</time>
      </trkpt>
      <trkpt lat="41.674459" lon="-83.413495">
        <ele>176.307715</ele>
        <time>2022-06-25T08:10:54.000Z</time>
      </trkpt>
      <trkpt lat="41.67452" lon="-83.409761">
        <ele>176.113964</ele>
        <time>2022-06-25T08:11:25.000Z</time>
      </trkpt>
      <trkpt lat="41.674523" lon="-83.409652">
        <ele>176.112353</ele>
        <time>2022-06-25T08:11:26.000Z</time>
      </trkpt>
      <trkpt lat="41.674527" lon="-83.408401">
        <ele>176.21991</ele>
        <time>2022-06-25T08:11:36.000Z</time>
      </trkpt>
      <trkpt lat="41.674563" lon="-83.405427">
        <ele>176.50358</ele>
        <time>2022-06-25T08:12:01.000Z</time>
      </trkpt>
      <trkpt lat="41.674573" lon="-83.402296">
        <ele>176.216365</ele>
        <time>2022-06-25T08:12:27.000Z</time>
      </trkpt>
      <trkpt lat="41.67457" lon="-83.400675">
        <ele>176.075981</ele>
        <time>2022-06-25T08:12:40.000Z</time>
      </trkpt>
      <trkpt lat="41.674583" lon="-83.399712">
        <ele>176.013023</ele>
        <time>2022-06-25T08:12:48.000Z</time>
      </trkpt>
      <trkpt lat="41.674601" lon="-83.398979">
        <ele>176.000049</ele>
        <time>2022-06-25T08:12:54.000Z</time>
      </trkpt>
      <trkpt lat="41.674587" lon="-83.39874">
        <ele>176.000058</ele>
        <time>2022-06-25T08:12:56.000Z</time>
      </trkpt>
      <trkpt lat="41.674604" lon="-83.396652">
        <ele>175.999991</ele>
        <time>2022-06-25T08:13:13.000Z</time>
      </trkpt>
      <trkpt lat="41.674619" lon="-83.395379">
        <ele>175.999995</ele>
        <time>2022-06-25T08:13:24.000Z</time>
      </trkpt>
      <trkpt lat="41.674661" lon="-83.390241">
        <ele>176.000004</ele>
        <time>2022-06-25T08:14:07.000Z</time>
      </trkpt>
      <trkpt lat="41.674647" lon="-83.387867">
        <ele>175.999998</ele>
        <time>2022-06-25T08:14:27.000Z</time>
      </trkpt>
      <trkpt lat="41.674653" lon="-83.386603">
        <ele>176.000001</ele>
        <time>2022-06-25T08:14:37.000Z</time>
      </trkpt>
      <trkpt lat="41.674699" lon="-83.38007">
        <ele>175.99872</ele>
        <time>2022-06-25T08:15:31.000Z</time>
      </trkpt>
      <trkpt lat="41.674677" lon="-83.377521">
        <ele>175.946465</ele>
        <time>2022-06-25T08:15:52.000Z</time>
      </trkpt>
      <trkpt lat="41.674706" lon="-83.375543">
        <ele>175.720907</ele>
        <time>2022-06-25T08:16:08.000Z</time>
      </trkpt>
      <trkpt lat="41.674714" lon="-83.371573">
        <ele>174.602202</ele>
        <time>2022-06-25T08:16:41.000Z</time>
      </trkpt>
      <trkpt lat="41.674708" lon="-83.371174">
        <ele>174.495469</ele>
        <time>2022-06-25T08:16:44.000Z</time>
      </trkpt>
      <trkpt lat="41.674706" lon="-83.370965">
        <ele>174.443135</ele>
        <time>2022-06-25T08:16:46.000Z</time>
      </trkpt>
      <trkpt lat="41.674713" lon="-83.370706">
        <ele>174.377645</ele>
        <time>2022-06-25T08:16:48.000Z</time>
      </trkpt>
      <trkpt lat="41.674701" lon="-83.366777">
        <ele>174.223199</ele>
        <time>2022-06-25T08:17:21.000Z</time>
      </trkpt>
      <trkpt lat="41.674723" lon="-83.365602">
        <ele>174.225892</ele>
        <time>2022-06-25T08:17:31.000Z</time>
      </trkpt>
      <trkpt lat="41.674741" lon="-83.365383">
        <ele>174.239837</ele>
        <time>2022-06-25T08:17:33.000Z</time>
      </trkpt>
      <trkpt lat="41.67473" lon="-83.364486">
        <ele>174.293564</ele>
        <time>2022-06-25T08:17:40.000Z</time>
      </trkpt>
      <trkpt lat="41.674797" lon="-83.351521">
        <ele>174.980323</ele>
        <time>2022-06-25T08:19:28.000Z</time>
      </trkpt>
      <trkpt lat="41.673633" lon="-83.351506">
        <ele>174.994902</ele>
        <time>2022-06-25T08:19:41.000Z</time>
      </trkpt>
      <trkpt lat="41.673209" lon="-83.351499">
        <ele>174.997799</ele>
        <time>2022-06-25T08:19:46.000Z</time>
      </trkpt>
      <trkpt lat="41.671993" lon="-83.351495">
        <ele>174.966316</ele>
        <time>2022-06-25T08:20:00.000Z</time>
      </trkpt>
      <trkpt lat="41.668023" lon="-83.351433">
        <ele>174.751872</ele>
        <time>2022-06-25T08:20:44.000Z</time>
      </trkpt>
      <trkpt lat="41.667508" lon="-83.351447">
        <ele>174.705149</ele>
        <time>2022-06-25T08:20:50.000Z</time>
      </trkpt>
      <trkpt lat="41.667524" lon="-83.348527">
        <ele>174.527382</ele>
        <time>2022-06-25T08:21:14.000Z</time>
      </trkpt>
      <trkpt lat="41.66753" lon="-83.347562">
        <ele>174.621912</ele>
        <time>2022-06-25T08:21:22.000Z</time>
      </trkpt>
      <trkpt lat="41.66754" lon="-83.347074">
        <ele>174.668106</ele>
        <time>2022-06-25T08:21:26.000Z</time>
      </trkpt>
      <trkpt lat="41.66754" lon="-83.346581">
        <ele>174.71479</ele>
        <time>2022-06-25T08:21:30.000Z</time>
      </trkpt>
      <trkpt lat="41.667564" lon="-83.345008">
        <ele>174.869251</ele>
        <time>2022-06-25T08:21:43.000Z</time>
      </trkpt>
      <trkpt lat="41.667574" lon="-83.34306">
        <ele>174.848449</ele>
        <time>2022-06-25T08:21:59.000Z</time>
      </trkpt>
      <trkpt lat="41.667574" lon="-83.342715">
        <ele>174.816401</ele>
        <time>2022-06-25T08:22:02.000Z</time>
      </trkpt>
      <trkpt lat="41.66759" lon="-83.341094">
        <ele>174.643672</ele>
        <time>2022-06-25T08:22:15.000Z</time>
      </trkpt>
      <trkpt lat="41.667591" lon="-83.34096">
        <ele>174.628048</ele>
        <time>2022-06-25T08:22:16.000Z</time>
      </trkpt>
      <trkpt lat="41.667597" lon="-83.340129">
        <ele>174.52302</ele>
        <time>2022-06-25T08:22:23.000Z</time>
      </trkpt>
      <trkpt lat="41.667599" lon="-83.339942">
        <ele>174.500324</ele>
        <time>2022-06-25T08:22:25.000Z</time>
      </trkpt>
      <trkpt lat="41.667624" lon="-83.336642">
        <ele>174.456389</ele>
        <time>2022-06-25T08:22:52.000Z</time>
      </trkpt>
      <trkpt lat="41.667612" lon="-83.335781">
        <ele>174.559643</ele>
        <time>2022-06-25T08:22:59.000Z</time>
      </trkpt>
      <trkpt lat="41.66762" lon="-83.335144">
        <ele>174.634802</ele>
        <time>2022-06-25T08:23:04.000Z</time>
      </trkpt>
      <trkpt lat="41.667607" lon="-83.335068">
        <ele>174.644318</ele>
        <time>2022-06-25T08:23:05.000Z</time>
      </trkpt>
      <trkpt lat="41.667623" lon="-83.33482">
        <ele>174.674293</ele>
        <time>2022-06-25T08:23:07.000Z</time>
      </trkpt>
      <trkpt lat="41.667638" lon="-83.33308">
        <ele>174.86274</ele>
        <time>2022-06-25T08:23:21.000Z</time>
      </trkpt>
      <trkpt lat="41.667654" lon="-83.331937">
        <ele>174.96661</ele>
        <time>2022-06-25T08:23:30.000Z</time>
      </trkpt>
      <trkpt lat="41.669252" lon="-83.331971">
        <ele>174.999152</ele>
        <time>2022-06-25T08:23:48.000Z</time>
      </trkpt>
      <trkpt lat="41.670107" lon="-83.331989">
        <ele>174.999997</ele>
        <time>2022-06-25T08:23:58.000Z</time>
      </trkpt>
      <trkpt lat="41.670792" lon="-83.332">
        <ele>174.999993</ele>
        <time>2022-06-25T08:24:06.000Z</time>
      </trkpt>
      <trkpt lat="41.67227" lon="-83.332029">
        <ele>175.000006</ele>
        <time>2022-06-25T08:24:22.000Z</time>
      </trkpt>
      <trkpt lat="41.672452" lon="-83.332025">
        <ele>174.999992</ele>
        <time>2022-06-25T08:24:24.000Z</time>
      </trkpt>
      <trkpt lat="41.67288" lon="-83.332028">
        <ele>175.000003</ele>
        <time>2022-06-25T08:24:29.000Z</time>
      </trkpt>
      <trkpt lat="41.673214" lon="-83.332039">
        <ele>174.999996</ele>
        <time>2022-06-25T08:24:33.000Z</time>
      </trkpt>
      <trkpt lat="41.67495" lon="-83.332019">
        <ele>174.999995</ele>
        <time>2022-06-25T08:24:52.000Z</time>
      </trkpt>
      <trkpt lat="41.675148" lon="-83.332126">
        <ele>174.999997</ele>
        <time>2022-06-25T08:24:54.000Z</time>
      </trkpt>
      <trkpt lat="41.675194" lon="-83.332318">
        <ele>175.000004</ele>
        <time>2022-06-25T08:24:56.000Z</time>
      </trkpt>
      <trkpt lat="41.675187" lon="-83.332849">
        <ele>174.999994</ele>
        <time>2022-06-25T08:25:00.000Z</time>
      </trkpt>
      <trkpt lat="41.675174" lon="-83.334022">
        <ele>175.000005</ele>
        <time>2022-06-25T08:25:10.000Z</time>
      </trkpt>
      <trkpt lat="41.675155" lon="-83.335448">
        <ele>175.000006</ele>
        <time>2022-06-25T08:25:22.000Z</time>
      </trkpt>
      <trkpt lat="41.675142" lon="-83.336109">
        <ele>175.000007</ele>
        <time>2022-06-25T08:25:27.000Z</time>
      </trkpt>
      <trkpt lat="41.675145" lon="-83.336352">
        <ele>175.000007</ele>
        <time>2022-06-25T08:25:29.000Z</time>
      </trkpt>
      <trkpt lat="41.675127" lon="-83.336819">
        <ele>175.000002</ele>
        <time>2022-06-25T08:25:33.000Z</time>
      </trkpt>
      <trkpt lat="41.675112" lon="-83.33759">
        <ele>175.000002</ele>
        <time>2022-06-25T08:25:39.000Z</time>
      </trkpt>
      <trkpt lat="41.675067" lon="-83.339262">
        <ele>175.000004</ele>
        <time>2022-06-25T08:25:53.000Z</time>
      </trkpt>
      <trkpt lat="41.67505" lon="-83.340455">
        <ele>174.999999</ele>
        <time>2022-06-25T08:26:03.000Z</time>
      </trkpt>
      <trkpt lat="41.675039" lon="-83.341072">
        <ele>175</ele>
        <time>2022-06-25T08:26:08.000Z</time>
      </trkpt>
      <trkpt lat="41.675011" lon="-83.342267">
        <ele>174.999997</ele>
        <time>2022-06-25T08:26:18.000Z</time>
      </trkpt>
      <trkpt lat="41.674989" lon="-83.34283">
        <ele>174.999997</ele>
        <time>2022-06-25T08:26:23.000Z</time>
      </trkpt>
      <trkpt lat="41.674883" lon="-83.347892">
        <ele>175.000001</ele>
        <time>2022-06-25T08:27:05.000Z</time>
      </trkpt>
      <trkpt lat="41.674813" lon="-83.351177">
        <ele>174.975698</ele>
        <time>2022-06-25T08:27:32.000Z</time>
      </trkpt>
      <trkpt lat="41.674805" lon="-83.351537">
        <ele>174.958176</ele>
        <time>2022-06-25T08:27:35.000Z</time>
      </trkpt>
      <trkpt lat="41.674729" lon="-83.364483">
        <ele>174.286016</ele>
        <time>2022-06-25T08:29:23.000Z</time>
      </trkpt>
      <trkpt lat="41.674734" lon="-83.365386">
        <ele>174.244113</ele>
        <time>2022-06-25T08:29:31.000Z</time>
      </trkpt>
      <trkpt lat="41.674707" lon="-83.365614">
        <ele>174.246273</ele>
        <time>2022-06-25T08:29:33.000Z</time>
      </trkpt>
      <trkpt lat="41.674709" lon="-83.366773">
        <ele>174.257076</ele>
        <time>2022-06-25T08:29:43.000Z</time>
      </trkpt>
      <trkpt lat="41.674714" lon="-83.370714">
        <ele>174.542747</ele>
        <time>2022-06-25T08:30:16.000Z</time>
      </trkpt>
      <trkpt lat="41.674784" lon="-83.370631">
        <ele>174.558673</ele>
        <time>2022-06-25T08:30:17.000Z</time>
      </trkpt>
      <trkpt lat="41.67526" lon="-83.370532">
        <ele>174.648037</ele>
        <time>2022-06-25T08:30:22.000Z</time>
      </trkpt>
      <trkpt lat="41.675655" lon="-83.370211">
        <ele>174.731086</ele>
        <time>2022-06-25T08:30:27.000Z</time>
      </trkpt>
      <trkpt lat="41.676306" lon="-83.369963">
        <ele>174.829543</ele>
        <time>2022-06-25T08:30:35.000Z</time>
      </trkpt>
      <trkpt lat="41.676784" lon="-83.369929">
        <ele>174.888693</ele>
        <time>2022-06-25T08:30:40.000Z</time>
      </trkpt>
      <trkpt lat="41.677276" lon="-83.370079">
        <ele>174.952956</ele>
        <time>2022-06-25T08:30:46.000Z</time>
      </trkpt>
      <trkpt lat="41.67759" lon="-83.370403">
        <ele>174.999975</ele>
        <time>2022-06-25T08:30:50.000Z</time>
      </trkpt>
      <trkpt lat="41.677669" lon="-83.370527">
        <ele>175.011070296</ele>
        <time>2022-06-25T08:30:51.000Z</time>
      </trkpt>
      <trkpt lat="41.677838" lon="-83.370902">
        <ele>175.040886063</ele>
        <time>2022-06-25T08:30:55.000Z</time>
      </trkpt>
      <trkpt lat="41.677899" lon="-83.371155">
        <ele>175.058984489</ele>
        <time>2022-06-25T08:30:57.000Z</time>
      </trkpt>
      <trkpt lat="41.67786" lon="-83.372636">
        <ele>175.159867877</ele>
        <time>2022-06-25T08:31:09.000Z</time>
      </trkpt>
      <trkpt lat="41.677949" lon="-83.373348">
        <ele>175.209012179</ele>
        <time>2022-06-25T08:31:15.000Z</time>
      </trkpt>
      <trkpt lat="41.67806" lon="-83.373807">
        <ele>175.241856118</ele>
        <time>2022-06-25T08:31:19.000Z</time>
      </trkpt>
      <trkpt lat="41.678279" lon="-83.374434">
        <ele>175.288976398</ele>
        <time>2022-06-25T08:31:25.000Z</time>
      </trkpt>
      <trkpt lat="41.678617" lon="-83.375077">
        <ele>175.342503213</ele>
        <time>2022-06-25T08:31:32.000Z</time>
      </trkpt>
      <trkpt lat="41.67888" lon="-83.375446">
        <ele>175.377225306</ele>
        <time>2022-06-25T08:31:36.000Z</time>
      </trkpt>
      <trkpt lat="41.67962" lon="-83.376226">
        <ele>175.463065936</ele>
        <time>2022-06-25T08:31:46.000Z</time>
      </trkpt>
      <trkpt lat="41.679911" lon="-83.376846">
        <ele>175.512914015</ele>
        <time>2022-06-25T08:31:52.000Z</time>
      </trkpt>
      <trkpt lat="41.679993" lon="-83.377104">
        <ele>175.532001217</ele>
        <time>2022-06-25T08:31:54.000Z</time>
      </trkpt>
      <trkpt lat="41.680234" lon="-83.378117">
        <ele>175.604373958</ele>
        <time>2022-06-25T08:32:03.000Z</time>
      </trkpt>
      <trkpt lat="41.680351" lon="-83.378677">
        <ele>175.643958645</ele>
        <time>2022-06-25T08:32:08.000Z</time>
      </trkpt>
      <trkpt lat="41.680487" lon="-83.379039">
        <ele>175.67154329</ele>
        <time>2022-06-25T08:32:11.000Z</time>
      </trkpt>
      <trkpt lat="41.680762" lon="-83.379534">
        <ele>175.713539623</ele>
        <time>2022-06-25T08:32:16.000Z</time>
      </trkpt>
      <trkpt lat="41.681059" lon="-83.379886">
        <ele>175.749691501</ele>
        <time>2022-06-25T08:32:20.000Z</time>
      </trkpt>
      <trkpt lat="41.681121" lon="-83.379936">
        <ele>175.756288378</ele>
        <time>2022-06-25T08:32:21.000Z</time>
      </trkpt>
      <trkpt lat="41.681672" lon="-83.380225">
        <ele>175.810225294</ele>
        <time>2022-06-25T08:32:28.000Z</time>
      </trkpt>
      <trkpt lat="41.68218" lon="-83.380304">
        <ele>175.856838462</ele>
        <time>2022-06-25T08:32:34.000Z</time>
      </trkpt>
      <trkpt lat="41.683974" lon="-83.379888">
        <ele>176.022787393</ele>
        <time>2022-06-25T08:32:54.000Z</time>
      </trkpt>
      <trkpt lat="41.684232" lon="-83.379837">
        <ele>176.046557804</ele>
        <time>2022-06-25T08:32:57.000Z</time>
      </trkpt>
    </trkseg>
  </trk>
</gpx>

<!--
Performance optimized by W3 Total Cache. Learn more: https://www.boldgrid.com/w3-total-cache/?utm_source=w3tc&utm_medium=footer_comment&utm_campaign=free_plugin

Page Caching using Disk: Enhanced{w3tc_pagecache_reject_reason} 

Served from: www.aquabike.world @ 2026-05-10 18:58:04 by W3 Total Cache
-->